Time;durP1;ratioP1;P1;durP2;ratioP2;P2;SDS_P1;SDS_P2;PMS_P1;PMS_P2;Temp;Humidity;BMP_temperature;BMP_pressure;BME280_temperature;BME280_humidity;BME280_pressure;Samples;Min_cycle;Max_cycle;Signal;HPM_P1;HPM_P2
2022/07/19 00:00:28;;;;;;;4.13;2.37;;;21.70;99.90;;;;;;4956867;29;20248;-64
2022/07/19 00:02:55;;;;;;;5.50;2.67;;;21.70;99.90;;;;;;4956914;29;20640;-63
2022/07/19 00:05:23;;;;;;;5.93;2.60;;;21.70;99.90;;;;;;4956916;29;20209;-63
2022/07/19 00:07:50;;;;;;;6.30;2.00;;;21.60;99.90;;;;;;4956279;29;20623;-63
2022/07/19 00:10:19;;;;;;;7.03;2.27;;;21.60;99.90;;;;;;4956456;29;20229;-63
2022/07/19 00:12:46;;;;;;;4.63;2.10;;;21.70;99.90;;;;;;4956597;29;20248;-63
2022/07/19 00:15:15;;;;;;;4.00;2.30;;;21.70;99.90;;;;;;4956750;29;20264;-63
2022/07/19 00:17:44;;;;;;;5.27;2.17;;;21.70;99.90;;;;;;4956257;29;20233;-63
2022/07/19 00:20:13;;;;;;;3.77;2.20;;;21.70;99.90;;;;;;4956526;29;20241;-64
2022/07/19 00:22:41;;;;;;;2.90;2.13;;;21.60;99.90;;;;;;4956558;29;20213;-63
2022/07/19 00:25:08;;;;;;;2.90;2.47;;;21.60;99.90;;;;;;4956098;29;20213;-63
2022/07/19 00:27:35;;;;;;;6.53;2.23;;;21.60;99.90;;;;;;4956052;29;20213;-63
2022/07/19 00:30:03;;;;;;;2.10;1.80;;;21.60;99.90;;;;;;4956239;29;20233;-63
2022/07/19 00:32:30;;;;;;;3.77;2.00;;;21.60;99.90;;;;;;4956507;29;20257;-63
2022/07/19 00:34:56;;;;;;;5.63;2.33;;;21.60;99.90;;;;;;4956005;29;20725;-62
2022/07/19 00:37:23;;;;;;;8.27;2.60;;;21.60;99.90;;;;;;4955483;29;20229;-63
2022/07/19 00:39:51;;;;;;;3.47;2.70;;;21.60;99.90;;;;;;4956356;29;20233;-63
2022/07/19 00:42:18;;;;;;;4.93;2.10;;;21.60;99.90;;;;;;4956080;29;20213;-62
2022/07/19 00:44:46;;;;;;;4.50;1.80;;;21.60;99.90;;;;;;4956310;29;20213;-64
2022/07/19 00:47:12;;;;;;;3.83;1.80;;;21.60;99.90;;;;;;4955662;29;20233;-63
2022/07/19 00:49:40;;;;;;;5.17;2.20;;;21.50;99.90;;;;;;4955933;29;20716;-63
2022/07/19 00:52:07;;;;;;;5.53;1.97;;;21.50;99.90;;;;;;4955625;29;20209;-63
2022/07/19 00:54:35;;;;;;;3.77;2.03;;;21.40;99.90;;;;;;4956096;29;20647;-63
2022/07/19 00:57:05;;;;;;;4.77;2.20;;;21.50;99.90;;;;;;4955762;29;20321;-63
2022/07/19 00:59:33;;;;;;;3.63;2.10;;;21.50;99.90;;;;;;4955930;29;20225;-63
2022/07/19 01:02:00;;;;;;;3.33;1.93;;;21.50;99.90;;;;;;4956192;29;20204;-64
2022/07/19 01:04:28;;;;;;;7.60;2.07;;;21.50;99.90;;;;;;4955550;29;20209;-63
2022/07/19 01:06:55;;;;;;;3.17;1.80;;;21.50;99.90;;;;;;4955500;29;20209;-63
2022/07/19 01:09:22;;;;;;;4.13;2.23;;;21.50;99.90;;;;;;4955555;29;20286;-64
2022/07/19 01:11:49;;;;;;;2.03;1.70;;;21.50;99.90;;;;;;4955508;29;20244;-63
2022/07/19 01:14:17;;;;;;;2.70;1.67;;;21.50;99.90;;;;;;4955475;29;20803;-62
2022/07/19 01:16:45;;;;;;;3.40;2.17;;;21.50;99.90;;;;;;4954939;29;20749;-62
2022/07/19 01:19:13;;;;;;;4.00;1.97;;;21.50;99.90;;;;;;4955272;29;20319;-63
2022/07/19 01:21:42;;;;;;;4.03;1.80;;;21.50;99.90;;;;;;4955628;29;20205;-63
2022/07/19 01:24:09;;;;;;;3.80;2.03;;;21.50;99.90;;;;;;4955388;29;20213;-63
2022/07/19 01:26:35;;;;;;;3.67;1.83;;;21.50;99.90;;;;;;4954989;29;20216;-63
2022/07/19 01:29:03;;;;;;;2.63;1.80;;;21.50;99.90;;;;;;4955302;29;20280;-64
2022/07/19 01:31:29;;;;;;;4.57;1.77;;;21.50;99.90;;;;;;4955082;29;20236;-63
2022/07/19 01:33:56;;;;;;;3.77;1.80;;;21.50;99.90;;;;;;4955109;29;21014;-64
2022/07/19 01:36:23;;;;;;;5.83;2.07;;;21.50;99.90;;;;;;4955103;29;20213;-63
2022/07/19 01:38:51;;;;;;;2.57;1.80;;;21.50;99.90;;;;;;4954462;29;20236;-63
2022/07/19 01:41:18;;;;;;;3.93;1.70;;;21.50;99.90;;;;;;4955211;29;20213;-63
2022/07/19 01:43:44;;;;;;;8.10;2.07;;;21.50;99.90;;;;;;4955044;29;20217;-63
2022/07/19 01:46:11;;;;;;;4.30;2.00;;;21.50;99.90;;;;;;4954358;28;20272;-63
2022/07/19 01:48:38;;;;;;;3.83;1.80;;;21.50;99.90;;;;;;4955501;29;20652;-62
2022/07/19 01:51:05;;;;;;;3.27;1.70;;;21.50;99.90;;;;;;4955188;29;20632;-64
2022/07/19 01:53:31;;;;;;;2.87;1.63;;;21.50;99.90;;;;;;4954808;29;20212;-63
2022/07/19 01:55:59;;;;;;;2.97;1.73;;;21.50;99.90;;;;;;4954500;29;20259;-63
2022/07/19 01:58:26;;;;;;;2.53;1.90;;;21.50;99.90;;;;;;4954823;29;20256;-60
2022/07/19 02:00:53;;;;;;;2.47;1.93;;;21.50;99.90;;;;;;4954477;29;20220;-62
2022/07/19 02:03:19;;;;;;;4.00;1.90;;;21.50;99.90;;;;;;4954659;29;20677;-63
2022/07/19 02:05:46;;;;;;;2.23;1.63;;;21.50;99.90;;;;;;4954511;29;20214;-60
2022/07/19 02:08:13;;;;;;;3.70;1.70;;;21.50;99.90;;;;;;4954359;29;20201;-62
2022/07/19 02:10:39;;;;;;;2.10;1.80;;;21.50;99.90;;;;;;4954629;29;20255;-63
2022/07/19 02:13:07;;;;;;;3.60;1.70;;;21.50;99.90;;;;;;4954238;29;20209;-63
2022/07/19 02:15:34;;;;;;;4.27;1.60;;;21.50;99.90;;;;;;4954804;29;20217;-62
2022/07/19 02:18:01;;;;;;;3.53;2.10;;;21.50;99.90;;;;;;4954042;29;20236;-63
2022/07/19 02:20:28;;;;;;;2.47;1.60;;;21.50;99.90;;;;;;4954330;29;20778;-63
2022/07/19 02:22:54;;;;;;;4.67;1.80;;;21.40;99.90;;;;;;4954427;29;20244;-62
2022/07/19 02:25:21;;;;;;;3.73;1.90;;;21.50;99.90;;;;;;4954490;29;20212;-60
2022/07/19 02:27:48;;;;;;;2.87;1.80;;;21.40;99.90;;;;;;4954269;29;20212;-63
2022/07/19 02:30:17;;;;;;;2.00;1.60;;;21.40;99.90;;;;;;4954190;29;20237;-63
2022/07/19 02:32:44;;;;;;;2.67;1.47;;;21.40;99.90;;;;;;4954465;29;20213;-62
2022/07/19 02:35:12;;;;;;;3.37;1.40;;;21.50;99.90;;;;;;4954001;29;20582;-63
2022/07/19 02:37:39;;;;;;;4.10;1.60;;;21.50;99.90;;;;;;4953583;29;20276;-63
2022/07/19 02:40:08;;;;;;;4.00;1.83;;;21.50;99.90;;;;;;4953885;29;20651;-63
2022/07/19 02:42:34;;;;;;;2.27;1.43;;;21.40;99.90;;;;;;4954067;29;20213;-63
2022/07/19 02:45:01;;;;;;;4.57;1.70;;;21.40;99.90;;;;;;4953929;29;20284;-62
2022/07/19 02:47:29;;;;;;;4.60;1.83;;;21.40;99.90;;;;;;4953966;29;20841;-60
2022/07/19 02:49:56;;;;;;;3.00;1.87;;;21.50;99.90;;;;;;4954025;29;20232;-62
2022/07/19 02:52:22;;;;;;;2.63;2.13;;;21.40;99.90;;;;;;4953716;29;20634;-63
2022/07/19 02:54:49;;;;;;;3.17;1.93;;;21.40;99.90;;;;;;4953842;29;20208;-63
2022/07/19 02:57:16;;;;;;;4.23;1.60;;;21.40;99.90;;;;;;4953430;28;20209;-63
2022/07/19 02:59:42;;;;;;;3.47;1.53;;;21.40;99.90;;;;;;4953948;29;20236;-63
2022/07/19 03:02:09;;;;;;;3.37;1.80;;;21.40;99.90;;;;;;4953764;29;20642;-63
2022/07/19 03:04:37;;;;;;;2.73;1.60;;;21.40;99.90;;;;;;4953938;29;20268;-62
2022/07/19 03:07:04;;;;;;;3.40;1.40;;;21.30;99.90;;;;;;4953424;29;20283;-62
2022/07/19 03:09:30;;;;;;;5.17;1.90;;;21.30;99.90;;;;;;4953423;29;20224;-63
2022/07/19 03:11:57;;;;;;;3.10;1.70;;;21.30;99.90;;;;;;4953693;29;20672;-63
2022/07/19 03:14:23;;;;;;;5.17;2.07;;;21.30;99.90;;;;;;4953705;29;20209;-63
2022/07/19 03:16:50;;;;;;;2.27;1.47;;;21.30;99.90;;;;;;4953622;29;20256;-62
2022/07/19 03:19:17;;;;;;;4.57;2.00;;;21.30;99.90;;;;;;4953669;29;20229;-64
2022/07/19 03:21:45;;;;;;;2.47;1.57;;;21.30;99.90;;;;;;4953813;29;20213;-63
2022/07/19 03:24:11;;;;;;;5.47;1.60;;;21.30;99.90;;;;;;4954091;29;20208;-63
2022/07/19 03:26:38;;;;;;;3.43;1.77;;;21.30;99.90;;;;;;4953432;29;20680;-62
2022/07/19 03:29:04;;;;;;;2.93;1.77;;;21.30;99.90;;;;;;4953666;29;20233;-62
2022/07/19 03:31:31;;;;;;;3.17;1.60;;;21.30;99.90;;;;;;4953447;29;20216;-64
2022/07/19 03:33:58;;;;;;;4.17;1.80;;;21.30;99.90;;;;;;4953592;29;20213;-63
2022/07/19 03:36:25;;;;;;;6.10;2.07;;;21.30;99.90;;;;;;4952917;28;20755;-63
2022/07/19 03:38:53;;;;;;;2.13;1.70;;;21.20;99.90;;;;;;4953501;29;20275;-62
2022/07/19 03:41:20;;;;;;;5.07;1.83;;;21.20;99.90;;;;;;4953279;29;20205;-62
2022/07/19 03:43:46;;;;;;;4.73;2.00;;;21.20;99.90;;;;;;4953508;29;20312;-63
2022/07/19 03:46:13;;;;;;;4.57;1.70;;;21.10;99.90;;;;;;4952746;29;20872;-62
2022/07/19 03:48:40;;;;;;;2.37;1.67;;;21.20;99.90;;;;;;4953369;29;20224;-63
2022/07/19 03:51:07;;;;;;;5.30;1.57;;;21.20;99.90;;;;;;4953326;28;20240;-63
2022/07/19 03:53:35;;;;;;;4.13;1.83;;;21.20;99.90;;;;;;4953355;29;20236;-62
2022/07/19 03:56:03;;;;;;;6.70;1.97;;;21.20;99.90;;;;;;4953447;29;20264;-62
2022/07/19 03:58:30;;;;;;;3.63;1.70;;;21.20;99.90;;;;;;4952924;29;20225;-64
2022/07/19 04:00:56;;;;;;;4.40;1.80;;;21.20;99.90;;;;;;4953452;29;20205;-63
2022/07/19 04:03:23;;;;;;;2.60;1.73;;;21.20;99.90;;;;;;4953146;29;20205;-63
2022/07/19 04:05:50;;;;;;;4.20;1.70;;;21.20;99.90;;;;;;4953060;29;20879;-63
2022/07/19 04:08:16;;;;;;;2.20;1.70;;;21.20;99.90;;;;;;4953720;28;20209;-62
2022/07/19 04:10:43;;;;;;;2.73;1.60;;;21.30;99.90;;;;;;4956541;29;20265;-62
2022/07/19 04:13:11;;;;;;;2.87;1.70;;;21.30;99.90;;;;;;4956701;29;20209;-63
2022/07/19 04:15:38;;;;;;;2.87;1.50;;;21.40;99.90;;;;;;4956568;29;20213;-63
2022/07/19 04:18:05;;;;;;;4.60;1.90;;;21.40;99.90;;;;;;4956678;29;20308;-63
2022/07/19 04:20:31;;;;;;;5.30;1.73;;;21.40;99.90;;;;;;4956269;29;20291;-62
2022/07/19 04:22:58;;;;;;;4.23;1.57;;;21.40;99.90;;;;;;4956695;29;20209;-63
2022/07/19 04:25:25;;;;;;;3.57;1.80;;;21.40;99.90;;;;;;4956590;29;20296;-61
2022/07/19 04:27:52;;;;;;;2.73;2.03;;;21.40;99.90;;;;;;4956078;29;20216;-62
2022/07/19 04:30:20;;;;;;;3.60;1.60;;;21.50;99.90;;;;;;4956615;29;20236;-62
2022/07/19 04:32:46;;;;;;;3.77;1.80;;;21.50;99.90;;;;;;4956206;29;20739;-62
2022/07/19 04:35:15;;;;;;;4.47;2.20;;;21.50;99.90;;;;;;4956531;29;20642;-61
2022/07/19 04:37:42;;;;;;;5.67;1.83;;;21.50;99.90;;;;;;4955906;29;20212;-62
2022/07/19 04:40:10;;;;;;;4.47;1.80;;;21.60;99.90;;;;;;4956271;28;20272;-62
2022/07/19 04:42:36;;;;;;;6.43;1.77;;;21.60;99.90;;;;;;4948943;29;20210;-61
2022/07/19 04:45:04;;;;;;;3.93;1.87;;;21.70;99.90;;;;;;4938919;29;20268;-61
2022/07/19 04:47:32;;;;;;;5.60;1.80;;;21.70;99.90;;;;;;4955350;29;20260;-61
2022/07/19 04:49:59;;;;;;;3.10;1.60;;;21.70;99.90;;;;;;4955936;29;20225;-61
2022/07/19 04:52:26;;;;;;;4.50;2.17;;;21.70;99.90;;;;;;4956066;29;20205;-61
2022/07/19 04:54:53;;;;;;;2.97;1.80;;;21.80;99.90;;;;;;4955513;29;20703;-61
2022/07/19 04:57:19;;;;;;;2.40;1.90;;;21.80;99.90;;;;;;4944277;29;20209;-61
2022/07/19 04:59:46;;;;;;;2.90;1.60;;;21.80;99.90;;;;;;4936107;29;20300;-61
2022/07/19 05:02:12;;;;;;;5.33;1.63;;;21.80;99.90;;;;;;4936410;29;20276;-61
2022/07/19 05:04:40;;;;;;;2.90;1.87;;;21.90;99.90;;;;;;4936860;29;20209;-61
2022/07/19 05:07:07;;;;;;;3.83;1.70;;;21.90;99.90;;;;;;4935911;29;20205;-61
2022/07/19 05:09:34;;;;;;;2.37;1.70;;;22.00;99.90;;;;;;4936455;29;20230;-61
2022/07/19 05:12:05;;;;;;;4.17;1.63;;;22.10;99.90;;;;;;4936470;29;20685;-61
2022/07/19 05:14:31;;;;;;;3.47;2.03;;;22.10;99.90;;;;;;4936396;29;20276;-61
2022/07/19 05:16:58;;;;;;;5.67;2.03;;;22.20;99.90;;;;;;4936023;29;20210;-61
2022/07/19 05:19:24;;;;;;;3.87;1.80;;;22.20;99.90;;;;;;4935320;29;20653;-61
2022/07/19 05:21:52;;;;;;;4.23;1.80;;;22.30;99.90;;;;;;4936105;29;20296;-62
2022/07/19 05:24:19;;;;;;;3.30;1.70;;;22.30;99.90;;;;;;4935925;29;20213;-62
2022/07/19 05:26:46;;;;;;;2.13;1.50;;;22.40;99.90;;;;;;4936084;29;20286;-62
2022/07/19 05:29:12;;;;;;;5.63;1.50;;;22.50;99.90;;;;;;4935254;29;20300;-62
2022/07/19 05:31:39;;;;;;;1.73;1.43;;;22.60;99.90;;;;;;4947756;29;20620;-66
2022/07/19 05:34:05;;;;;;;2.37;1.50;;;22.60;99.90;;;;;;4954463;29;20683;-61
2022/07/19 05:36:32;;;;;;;5.23;1.93;;;22.70;99.90;;;;;;4954568;29;20217;-60
2022/07/19 05:39:00;;;;;;;3.97;2.00;;;22.80;99.90;;;;;;4954809;29;20251;-60
2022/07/19 05:41:27;;;;;;;6.37;2.10;;;22.90;99.90;;;;;;4954550;29;20205;-60
2022/07/19 05:43:53;;;;;;;3.03;1.90;;;22.90;99.90;;;;;;4954467;29;20213;-60
2022/07/19 05:46:20;;;;;;;5.40;1.90;;;22.90;99.90;;;;;;4954498;29;20221;-60
2022/07/19 05:48:47;;;;;;;4.70;1.67;;;23.10;99.90;;;;;;4955038;29;20228;-60
2022/07/19 05:51:14;;;;;;;3.27;1.77;;;23.10;99.90;;;;;;4955707;29;20281;-60
2022/07/19 05:53:42;;;;;;;5.50;1.80;;;23.20;99.90;;;;;;4954658;29;20748;-61
2022/07/19 05:56:10;;;;;;;2.70;1.97;;;23.30;99.90;;;;;;4955540;29;20216;-61
2022/07/19 05:58:37;;;;;;;3.17;1.80;;;23.40;99.90;;;;;;4955287;28;20236;-60
2022/07/19 06:01:22;;;;;;;4.30;1.80;;;23.50;99.90;;;;;;4950824;29;20676;-63
2022/07/19 06:03:50;;;;;;;2.50;1.77;;;23.60;99.90;;;;;;4946279;29;20205;-64
2022/07/19 06:06:16;;;;;;;4.23;2.10;;;23.70;99.90;;;;;;4953858;29;20213;-63
2022/07/19 06:08:43;;;;;;;3.77;1.60;;;23.80;99.90;;;;;;4953493;29;20280;-65
2022/07/19 06:11:11;;;;;;;3.83;1.70;;;23.90;99.90;;;;;;4953968;29;20707;-66
2022/07/19 06:13:38;;;;;;;3.50;1.77;;;24.00;99.90;;;;;;4954054;29;20211;-69
2022/07/19 06:16:06;;;;;;;3.37;1.70;;;24.10;99.90;;;;;;4953307;29;20209;-65
2022/07/19 06:18:35;;;;;;;5.13;1.80;;;24.30;99.90;;;;;;4953813;29;20287;-64
2022/07/19 06:21:02;;;;;;;2.13;1.60;;;24.40;99.90;;;;;;4953581;29;20304;-65
2022/07/19 06:23:28;;;;;;;4.37;1.67;;;24.50;99.90;;;;;;4953711;29;20295;-65
2022/07/19 06:25:55;;;;;;;4.67;1.70;;;24.60;99.90;;;;;;4953406;29;20217;-69
2022/07/19 06:28:23;;;;;;;5.67;2.33;;;24.70;99.90;;;;;;4953492;29;20227;-64
2022/07/19 06:30:50;;;;;;;4.33;1.60;;;24.80;99.90;;;;;;4953395;28;20747;-63
2022/07/19 06:33:16;;;;;;;4.20;1.77;;;24.90;99.90;;;;;;4953224;29;20209;-64
2022/07/19 06:35:43;;;;;;;3.80;2.13;;;25.00;99.90;;;;;;4953472;29;20216;-64
2022/07/19 06:38:10;;;;;;;6.50;2.17;;;25.10;99.90;;;;;;4952989;29;20248;-64
2022/07/19 06:40:36;;;;;;;5.13;2.00;;;25.20;99.90;;;;;;4953186;29;20268;-62
2022/07/19 06:43:03;;;;;;;4.73;2.20;;;25.30;99.90;;;;;;4953637;29;20216;-64
2022/07/19 06:45:31;;;;;;;3.73;2.03;;;25.40;99.90;;;;;;4953184;29;20365;-62
2022/07/19 06:47:58;;;;;;;6.30;1.80;;;25.50;99.90;;;;;;4953198;29;20217;-62
2022/07/19 06:50:25;;;;;;;3.30;2.00;;;25.70;99.90;;;;;;4953440;29;20221;-62
2022/07/19 06:52:52;;;;;;;4.00;2.10;;;25.80;99.90;;;;;;4953491;29;20279;-67
2022/07/19 06:55:18;;;;;;;7.50;2.10;;;25.90;99.90;;;;;;4953461;29;20209;-66
2022/07/19 06:57:45;;;;;;;4.50;2.10;;;26.00;99.90;;;;;;4952844;29;20213;-64
2022/07/19 07:00:13;;;;;;;4.07;1.93;;;26.20;99.90;;;;;;4953328;29;20299;-64
2022/07/19 07:02:42;;;;;;;5.43;2.00;;;26.30;99.90;;;;;;4953054;28;20212;-66
2022/07/19 07:05:11;;;;;;;5.20;2.03;;;26.40;99.90;;;;;;4953158;29;20212;-65
2022/07/19 07:07:39;;;;;;;4.00;2.00;;;26.50;99.90;;;;;;4953305;29;20208;-66
2022/07/19 07:10:07;;;;;;;3.30;1.97;;;26.70;99.90;;;;;;4953483;29;20232;-65
2022/07/19 07:12:34;;;;;;;5.63;2.37;;;26.80;99.90;;;;;;4953482;29;20217;-68
2022/07/19 07:15:01;;;;;;;5.67;2.20;;;27.00;99.90;;;;;;4953349;29;20263;-65
2022/07/19 07:17:28;;;;;;;3.43;1.83;;;27.20;99.90;;;;;;4952567;29;20672;-67
2022/07/19 07:19:56;;;;;;;3.77;2.17;;;27.30;99.90;;;;;;4952984;29;20299;-63
2022/07/19 07:22:22;;;;;;;5.73;2.30;;;27.50;99.90;;;;;;4953238;29;20235;-64
2022/07/19 07:24:49;;;;;;;4.33;2.23;;;27.60;99.90;;;;;;4952909;29;20212;-64
2022/07/19 07:27:16;;;;;;;3.67;2.10;;;27.80;99.90;;;;;;4952321;29;20228;-66
2022/07/19 07:29:42;;;;;;;4.30;2.30;;;28.00;99.90;;;;;;4953170;29;20276;-67
2022/07/19 07:32:09;;;;;;;3.87;1.93;;;28.20;99.90;;;;;;4952642;29;20265;-62
2022/07/19 07:34:36;;;;;;;9.17;2.40;;;28.40;99.90;;;;;;4952980;29;20616;-62
2022/07/19 07:37:04;;;;;;;5.27;2.33;;;28.60;99.90;;;;;;4952955;29;20208;-62
2022/07/19 07:39:30;;;;;;;4.70;2.27;;;28.70;99.90;;;;;;4952889;29;20236;-62
2022/07/19 07:41:57;;;;;;;7.23;2.17;;;28.90;99.90;;;;;;4953064;29;20292;-64
2022/07/19 07:44:24;;;;;;;4.63;1.90;;;29.10;99.90;;;;;;4954840;28;20263;-65
2022/07/19 07:46:50;;;;;;;3.87;2.20;;;29.30;99.90;;;;;;4956904;29;20205;-66
2022/07/19 07:49:17;;;;;;;3.97;2.10;;;29.50;99.90;;;;;;4957210;29;20233;-63
2022/07/19 07:51:44;;;;;;;4.67;2.00;;;29.70;99.90;;;;;;4956298;29;20213;-63
2022/07/19 07:54:12;;;;;;;3.03;1.80;;;29.80;99.90;;;;;;4956619;29;20268;-63
2022/07/19 07:56:39;;;;;;;4.90;2.13;;;30.00;99.90;;;;;;4955978;29;20683;-63
2022/07/19 07:59:06;;;;;;;2.87;2.13;;;30.30;99.90;;;;;;4956539;28;20287;-68
2022/07/19 08:01:34;;;;;;;5.03;2.20;;;30.50;99.90;;;;;;4956315;29;20241;-63
2022/07/19 08:04:00;;;;;;;4.60;2.25;;;30.50;99.90;;;;;;4956170;29;20212;-63
2022/07/19 08:06:27;;;;;;;3.85;1.75;;;30.70;99.90;;;;;;4956044;29;20228;-63
2022/07/19 08:08:54;;;;;;;5.22;1.88;;;30.90;99.90;;;;;;4955985;29;20279;-63
2022/07/19 08:11:22;;;;;;;7.28;2.30;;;31.00;99.90;;;;;;4956394;29;20205;-62
2022/07/19 08:13:49;;;;;;;6.80;1.90;;;31.20;99.90;;;;;;4955309;29;20209;-63
2022/07/19 08:16:16;;;;;;;4.63;2.20;;;31.30;99.90;;;;;;4956136;29;20249;-64
2022/07/19 08:18:43;;;;;;;3.58;2.08;;;31.50;99.90;;;;;;4956286;29;20232;-63
2022/07/19 08:21:10;;;;;;;4.57;1.85;;;31.60;99.90;;;;;;4955784;29;20256;-63
2022/07/19 08:23:37;;;;;;;5.40;1.75;;;31.70;99.90;;;;;;4956105;29;20316;-63
2022/07/19 08:26:04;;;;;;;3.38;1.80;;;31.70;99.90;;;;;;4955197;29;20220;-63
2022/07/19 08:28:32;;;;;;;6.05;2.35;;;31.80;99.90;;;;;;4955665;29;20217;-63
2022/07/19 08:30:59;;;;;;;3.72;1.83;;;31.90;99.90;;;;;;4956173;29;20205;-63
2022/07/19 08:33:26;;;;;;;4.20;2.08;;;32.10;99.90;;;;;;4955680;29;20280;-67
2022/07/19 08:35:52;;;;;;;4.25;2.17;;;32.10;99.90;;;;;;4955618;29;20205;-65
2022/07/19 08:38:19;;;;;;;4.45;2.17;;;32.20;99.90;;;;;;4955427;29;20220;-65
2022/07/19 08:40:48;;;;;;;4.65;2.00;;;32.20;99.90;;;;;;4955438;29;20241;-64
2022/07/19 08:43:14;;;;;;;4.65;1.90;;;32.30;99.90;;;;;;4955610;29;20268;-65
2022/07/19 08:45:42;;;;;;;3.78;2.10;;;32.40;99.90;;;;;;4955579;29;20205;-67
2022/07/19 08:48:10;;;;;;;2.05;1.52;;;32.60;99.90;;;;;;4955396;29;20252;-68
2022/07/19 08:50:37;;;;;;;4.10;2.13;;;32.70;99.90;;;;;;4955646;29;20641;-69
2022/07/19 08:53:04;;;;;;;4.63;2.03;;;32.80;99.90;;;;;;4955533;29;20309;-68
2022/07/19 08:55:31;;;;;;;4.90;2.67;;;33.00;99.90;;;;;;4954548;28;20240;-67
2022/07/19 08:57:57;;;;;;;3.22;2.25;;;33.00;99.90;;;;;;4955225;29;20567;-66
2022/07/19 09:00:24;;;;;;;4.22;1.95;;;33.10;99.90;;;;;;4955446;29;20235;-65
2022/07/19 09:02:57;;;;;;;5.53;2.20;;;33.20;99.90;;;;;;4955712;29;20209;-63
2022/07/19 09:05:24;;;;;;;4.40;1.80;;;33.30;99.90;;;;;;4955128;28;20307;-63
2022/07/19 09:08:06;;;;;;;8.43;1.73;;;33.40;99.90;;;;;;4954239;29;20213;-63
2022/07/19 09:10:34;;;;;;;3.70;1.80;;;33.30;99.90;;;;;;4955397;29;20568;-62
2022/07/19 09:13:04;;;;;;;2.72;2.08;;;33.40;99.90;;;;;;4954884;29;20221;-62
2022/07/19 09:15:39;;;;;;;3.60;2.33;;;33.40;99.90;;;;;;4954921;29;20220;-62
2022/07/19 09:18:09;;;;;;;4.25;2.03;;;33.50;99.90;;;;;;4954696;29;20755;-69
2022/07/19 09:20:35;;;;;;;3.38;2.53;;;33.60;99.90;;;;;;4954196;29;20778;-65
2022/07/19 09:23:03;;;;;;;6.82;2.38;;;33.70;99.90;;;;;;4954960;29;20213;-66
2022/07/19 09:25:39;;;;;;;3.70;2.45;;;33.80;99.90;;;;;;4954516;29;20219;-65
2022/07/19 09:28:07;;;;;;;3.95;2.00;;;33.70;99.90;;;;;;4954293;29;20759;-65
2022/07/19 09:30:39;;;;;;;3.90;2.10;;;33.80;99.90;;;;;;4954671;29;20225;-65
2022/07/19 09:33:13;;;;;;;4.15;1.98;;;33.90;99.90;;;;;;4955126;29;20235;-65
2022/07/19 09:35:42;;;;;;;5.57;2.03;;;34.00;99.90;;;;;;4955004;29;20201;-64
2022/07/19 09:38:27;;;;;;;5.30;2.30;;;33.90;99.90;;;;;;4954214;29;20261;-63
2022/07/19 09:41:08;;;;;;;3.38;2.08;;;34.10;99.90;;;;;;4954800;29;20221;-64
2022/07/19 09:43:49;;;;;;;2.92;1.73;;;33.90;99.90;;;;;;4954227;29;20248;-65
2022/07/19 09:46:29;;;;;;;4.97;1.80;;;33.80;99.90;;;;;;4954575;29;20723;-63
2022/07/19 09:49:04;;;;;;;6.20;2.35;;;33.90;99.90;;;;;;4954138;29;20272;-63
2022/07/19 09:51:33;;;;;;;7.63;2.00;;;33.80;99.90;;;;;;4953785;29;20204;-63
2022/07/19 09:54:00;;;;;;;2.72;1.73;;;34.00;99.90;;;;;;4954000;29;20213;-62
2022/07/19 09:56:30;;;;;;;4.35;1.70;;;34.00;99.90;;;;;;4953469;28;20295;-62
2022/07/19 09:58:58;;;;;;;2.88;1.83;;;34.10;99.90;;;;;;4954202;28;20720;-63
2022/07/19 10:01:26;;;;;;;2.75;1.80;;;34.20;99.90;;;;;;4953746;29;20320;-63
2022/07/19 10:03:58;;;;;;;5.43;2.40;;;34.20;99.90;;;;;;4954183;28;20209;-64
2022/07/19 10:06:27;;;;;;;4.97;2.20;;;34.10;99.90;;;;;;4953012;28;20213;-63
2022/07/19 10:08:54;;;;;;;4.45;1.98;;;34.10;99.90;;;;;;4954148;29;20225;-62
2022/07/19 10:11:21;;;;;;;3.22;2.33;;;34.20;99.90;;;;;;4954331;29;20272;-65
2022/07/19 10:13:49;;;;;;;7.20;2.47;;;34.50;99.90;;;;;;4953697;28;20236;-67
2022/07/19 10:16:22;;;;;;;3.53;1.95;;;34.60;99.90;;;;;;4953791;29;20268;-64
2022/07/19 10:18:58;;;;;;;3.65;1.58;;;34.70;99.90;;;;;;4953274;29;20650;-65
2022/07/19 10:21:27;;;;;;;3.55;2.17;;;34.80;99.90;;;;;;4953919;29;20228;-64
2022/07/19 10:23:53;;;;;;;4.05;1.75;;;34.90;99.90;;;;;;4935446;29;20213;-66
2022/07/19 10:26:35;;;;;;;4.47;1.83;;;34.90;99.90;;;;;;4934018;29;20205;-66
2022/07/19 10:29:12;;;;;;;2.90;1.90;;;35.00;99.90;;;;;;4949718;29;20864;-65
2022/07/19 10:31:40;;;;;;;4.35;1.85;;;35.00;99.90;;;;;;4944785;29;20260;-63
2022/07/19 10:34:08;;;;;;;2.92;1.60;;;35.00;99.90;;;;;;4935223;29;20217;-65
2022/07/19 10:36:39;;;;;;;2.67;1.80;;;35.20;99.90;;;;;;4934458;29;20206;-67
2022/07/19 10:39:27;;;;;;;3.13;1.60;;;35.30;99.90;;;;;;4934613;29;20625;-66
2022/07/19 10:42:21;;;;;;;2.25;1.80;;;35.20;99.90;;;;;;4934356;29;20237;-69
2022/07/19 10:45:14;;;;;;;3.90;1.60;;;35.40;99.90;;;;;;4900482;29;20221;-65
2022/07/19 10:48:07;;;;;;;2.63;1.52;;;35.40;99.90;;;;;;4934375;29;20213;-66
2022/07/19 10:50:58;;;;;;;3.03;1.77;;;35.30;99.90;;;;;;4934294;29;20221;-70
2022/07/19 10:54:05;;;;;;;4.22;1.50;;;35.30;99.90;;;;;;4934194;29;20221;-67
2022/07/19 10:56:58;;;;;;;3.40;1.42;;;35.40;99.90;;;;;;4934359;29;20196;-68
2022/07/19 10:59:33;;;;;;;4.47;1.98;;;35.50;99.90;;;;;;4932186;29;20240;-63
2022/07/19 11:02:02;;;;;;;2.65;1.83;;;35.70;99.90;;;;;;4933829;29;20724;-63
2022/07/19 11:04:30;;;;;;;6.40;1.65;;;35.80;99.90;;;;;;4933800;29;20700;-63
2022/07/19 11:07:11;;;;;;;2.33;1.40;;;35.90;99.90;;;;;;4934228;29;20209;-63
2022/07/19 11:09:45;;;;;;;3.58;1.80;;;35.90;99.90;;;;;;4934320;29;20225;-66
2022/07/19 11:12:30;;;;;;;5.03;1.80;;;35.80;99.90;;;;;;4933681;29;20300;-64
2022/07/19 11:14:58;;;;;;;2.28;1.63;;;35.80;99.90;;;;;;4933665;29;20209;-64
2022/07/19 11:17:25;;;;;;;4.88;1.48;;;35.50;99.90;;;;;;4933953;29;20563;-64
2022/07/19 11:20:04;;;;;;;3.90;1.67;;;35.70;99.90;;;;;;4937352;29;20304;-66
2022/07/19 11:22:35;;;;;;;2.25;1.48;;;35.70;99.90;;;;;;4938169;29;20342;-65
2022/07/19 11:25:05;;;;;;;3.58;1.70;;;35.80;99.90;;;;;;4937337;29;20269;-68
2022/07/19 11:27:33;;;;;;;3.47;1.75;;;35.80;99.90;;;;;;4937444;29;20217;-65
2022/07/19 11:30:03;;;;;;;4.15;1.70;;;35.80;99.90;;;;;;4937548;29;20284;-65
2022/07/19 11:32:30;;;;;;;4.07;1.63;;;35.90;99.90;;;;;;4937820;29;20631;-65
2022/07/19 11:34:58;;;;;;;4.50;1.75;;;35.90;99.90;;;;;;4937237;29;20213;-69
2022/07/19 11:37:27;;;;;;;6.35;2.08;;;36.00;99.90;;;;;;4937458;29;20814;-66
2022/07/19 11:39:54;;;;;;;3.28;2.03;;;36.00;99.90;;;;;;4937273;29;20233;-68
2022/07/19 11:42:34;;;;;;;4.03;1.98;;;36.10;99.90;;;;;;4937475;29;20240;-69
2022/07/19 11:45:09;;;;;;;7.18;1.80;;;36.20;99.90;;;;;;4937639;29;20209;-69
2022/07/19 11:47:36;;;;;;;2.30;1.65;;;36.10;99.90;;;;;;4936926;29;20669;-62
2022/07/19 11:50:07;;;;;;;3.67;1.67;;;36.00;99.90;;;;;;4937268;29;20724;-63
2022/07/19 11:52:44;;;;;;;1.80;1.52;;;36.20;99.90;;;;;;4937207;29;20218;-64
2022/07/19 11:55:11;;;;;;;3.70;1.77;;;36.30;99.90;;;;;;4936967;29;20281;-65
2022/07/19 11:57:39;;;;;;;6.35;1.70;;;36.40;99.90;;;;;;4937290;29;20217;-64
2022/07/19 12:00:08;;;;;;;5.65;1.95;;;36.30;99.90;;;;;;4936776;29;20237;-63
2022/07/19 12:02:51;;;;;;;2.35;1.70;;;36.30;99.90;;;;;;4937264;29;20245;-63
2022/07/19 12:05:18;;;;;;;5.10;1.63;;;36.30;99.90;;;;;;4936805;29;20676;-64
2022/07/19 12:07:47;;;;;;;4.78;2.00;;;36.40;99.90;;;;;;4936916;29;20214;-69
2022/07/19 12:10:42;;;;;;;2.70;1.60;;;36.40;99.90;;;;;;4937234;29;20234;-67
2022/07/19 12:13:11;;;;;;;2.75;1.83;;;36.50;99.90;;;;;;4936682;29;20214;-65
2022/07/19 12:15:47;;;;;;;4.75;1.80;;;36.50;99.90;;;;;;4937200;29;20300;-65
2022/07/19 12:18:16;;;;;;;2.08;1.73;;;36.50;99.90;;;;;;4936438;29;20563;-65
2022/07/19 12:20:44;;;;;;;2.90;1.60;;;36.50;99.90;;;;;;4937241;29;20236;-65
2022/07/19 12:23:16;;;;;;;2.70;2.05;;;36.50;99.90;;;;;;4936574;29;20209;-68
2022/07/19 12:25:43;;;;;;;4.35;2.10;;;36.70;99.90;;;;;;4936450;29;20276;-64
2022/07/19 12:28:11;;;;;;;2.08;1.63;;;36.50;99.90;;;;;;4936392;29;20222;-64
2022/07/19 12:30:38;;;;;;;7.38;1.88;;;36.60;99.90;;;;;;4936058;29;20236;-63
2022/07/19 12:33:10;;;;;;;2.70;1.80;;;36.60;99.90;;;;;;4936809;29;20236;-63
2022/07/19 12:35:45;;;;;;;2.85;2.20;;;36.60;99.90;;;;;;4939481;29;20622;-65
2022/07/19 12:38:13;;;;;;;4.18;1.73;;;36.80;99.90;;;;;;4955637;29;20732;-64
2022/07/19 12:40:41;;;;;;;4.38;1.58;;;36.70;99.90;;;;;;4951642;29;20268;-65
2022/07/19 12:43:12;;;;;;;4.55;2.10;;;36.70;99.90;;;;;;4936147;29;20939;-64
2022/07/19 12:45:43;;;;;;;1.90;1.70;;;36.80;99.90;;;;;;4940272;29;20221;-64
2022/07/19 12:48:11;;;;;;;3.90;1.85;;;36.90;99.90;;;;;;4954831;29;20239;-64
2022/07/19 12:50:40;;;;;;;3.45;2.20;;;36.50;99.90;;;;;;4955570;29;20229;-64
2022/07/19 12:53:09;;;;;;;7.63;1.98;;;36.60;99.90;;;;;;4955096;29;20224;-65
2022/07/19 12:55:37;;;;;;;3.17;1.83;;;36.60;99.90;;;;;;4955859;29;20236;-65